Time;durP1;ratioP1;P1;durP2;ratioP2;P2;SDS_P1;SDS_P2;PMS_P1;PMS_P2;Temp;Humidity;BMP_temperature;BMP_pressure;BME280_temperature;BME280_humidity;BME280_pressure;Samples;Min_cycle;Max_cycle;Signal;HPM_P1;HPM_P2
2023/05/11 00:01:46;;;;;;;1.85;1.75;;;;;;;;;;5013326;28;20068;-80
2023/05/11 00:04:14;;;;;;;1.60;1.60;;;;;;;;;;5013809;28;20056;-81
2023/05/11 00:06:41;;;;;;;2.15;1.95;;;;;;;;;;5011453;28;20065;-80
2023/05/11 00:09:10;;;;;;;2.08;1.98;;;;;;;;;;5012318;28;20042;-81
2023/05/11 00:11:37;;;;;;;2.00;1.90;;;;;;;;;;5012326;28;20046;-82
2023/05/11 00:14:05;;;;;;;2.08;1.60;;;;;;;;;;4996412;28;20042;-80
2023/05/11 00:16:32;;;;;;;1.65;1.55;;;;;;;;;;4991049;28;20132;-80
2023/05/11 00:19:00;;;;;;;1.23;1.23;;;;;;;;;;4993676;28;20050;-80
2023/05/11 00:21:28;;;;;;;1.17;1.17;;;;;;;;;;5004426;28;20056;-81
2023/05/11 00:23:56;;;;;;;1.30;1.30;;;;;;;;;;5043312;23;20048;-84
2023/05/11 00:26:26;;;;;;;1.10;1.10;;;;;;;;;;5056472;28;20041;-83
2023/05/11 00:28:56;;;;;;;1.00;1.00;;;;;;;;;;5045965;28;20044;-83
2023/05/11 00:31:27;;;;;;;1.20;1.20;;;;;;;;;;5074550;28;20571;-84
2023/05/11 00:33:57;;;;;;;1.02;1.02;;;;;;;;;;5072448;28;20048;-84
2023/05/11 00:36:25;;;;;;;1.30;1.20;;;;;;;;;;5050684;28;20462;-83
2023/05/11 00:38:52;;;;;;;1.10;1.10;;;;;;;;;;5061262;28;20574;-84
2023/05/11 00:41:20;;;;;;;1.15;1.15;;;;;;;;;;5053908;28;20082;-84
2023/05/11 00:43:48;;;;;;;1.00;1.00;;;;;;;;;;5062441;28;20094;-85
2023/05/11 00:46:15;;;;;;;0.80;0.80;;;;;;;;;;5078007;28;20105;-85
2023/05/11 00:48:43;;;;;;;1.20;1.20;;;;;;;;;;5059169;28;20043;-84
2023/05/11 00:51:11;;;;;;;1.52;1.23;;;;;;;;;;5073066;28;20052;-84
2023/05/11 00:53:38;;;;;;;1.20;1.20;;;;;;;;;;5056734;28;20059;-84
2023/05/11 00:56:06;;;;;;;0.82;0.82;;;;;;;;;;5084299;28;20146;-84
2023/05/11 00:58:36;;;;;;;0.90;0.90;;;;;;;;;;5070012;28;20052;-83
2023/05/11 01:01:04;;;;;;;0.85;0.85;;;;;;;;;;5052382;28;20747;-84
2023/05/11 01:03:32;;;;;;;0.90;0.90;;;;;;;;;;5064517;28;20040;-84
2023/05/11 01:06:08;;;;;;;1.02;1.02;;;;;;;;;;5063508;28;20079;-84
2023/05/11 01:08:39;;;;;;;1.85;0.90;;;;;;;;;;5058369;28;20096;-83
2023/05/11 01:11:16;;;;;;;0.90;0.90;;;;;;;;;;5038845;28;20056;-83
2023/05/11 01:13:48;;;;;;;0.90;0.90;;;;;;;;;;5048073;28;20048;-84
2023/05/11 01:16:19;;;;;;;1.00;1.00;;;;;;;;;;5051464;28;20064;-84
2023/05/11 01:18:53;;;;;;;1.08;1.08;;;;;;;;;;5054631;28;20517;-84
2023/05/11 01:21:21;;;;;;;1.02;1.02;;;;;;;;;;5067543;28;20146;-84
2023/05/11 01:23:49;;;;;;;0.77;0.77;;;;;;;;;;5058882;28;20048;-84
2023/05/11 01:26:26;;;;;;;1.20;1.20;;;;;;;;;;5064920;28;20076;-85
2023/05/11 01:29:12;;;;;;;0.90;0.90;;;;;;;;;;5064667;28;20044;-84
2023/05/11 01:31:45;;;;;;;0.90;0.90;;;;;;;;;;5101602;28;20056;-82
2023/05/11 01:34:16;;;;;;;1.10;1.10;;;;;;;;;;5084711;28;20053;-83
2023/05/11 01:36:57;;;;;;;0.70;0.70;;;;;;;;;;5075817;28;20050;-82
2023/05/11 01:39:28;;;;;;;1.20;1.20;;;;;;;;;;5096746;28;20052;-84
2023/05/11 01:41:57;;;;;;;1.10;1.10;;;;;;;;;;5041836;28;20524;-83
2023/05/11 01:44:28;;;;;;;0.80;0.80;;;;;;;;;;5056484;28;20139;-83
2023/05/11 01:50:31;;;;;;;0.80;0.80;;;;;;;;;;5073873;28;20119;-83
2023/05/11 01:53:01;;;;;;;0.90;0.90;;;;;;;;;;5060127;28;20045;-83
2023/05/11 01:55:36;;;;;;;0.77;0.77;;;;;;;;;;5060194;28;20055;-82
2023/05/11 01:58:06;;;;;;;0.85;0.85;;;;;;;;;;5048867;28;20092;-83
2023/05/11 02:00:33;;;;;;;0.70;0.70;;;;;;;;;;5037751;28;20051;-83
2023/05/11 02:03:01;;;;;;;0.68;0.68;;;;;;;;;;5058205;28;20052;-83
2023/05/11 02:05:29;;;;;;;0.88;0.88;;;;;;;;;;5070319;28;20056;-85
2023/05/11 02:08:02;;;;;;;0.88;0.88;;;;;;;;;;5050247;28;20806;-85
2023/05/11 02:10:31;;;;;;;0.80;0.80;;;;;;;;;;5054897;28;20595;-83
2023/05/11 02:13:01;;;;;;;1.08;1.08;;;;;;;;;;5042652;28;20135;-84
2023/05/11 02:16:19;;;;;;;;;;;;;;;;;;;;;
2023/05/11 02:19:33;;;;;;;1.20;1.20;;;;;;;;;;5023032;28;20043;-84
2023/05/11 02:22:00;;;;;;;0.90;0.90;;;;;;;;;;5049682;28;20528;-84
2023/05/11 02:24:30;;;;;;;1.00;1.00;;;;;;;;;;5048402;28;20128;-84
2023/05/11 02:26:58;;;;;;;0.60;0.60;;;;;;;;;;5057843;28;20055;-84
2023/05/11 02:29:25;;;;;;;0.88;0.88;;;;;;;;;;5053574;28;20730;-84
2023/05/11 02:31:55;;;;;;;0.85;0.85;;;;;;;;;;5073438;28;20115;-85
2023/05/11 02:34:27;;;;;;;0.90;0.90;;;;;;;;;;5065384;28;20050;-83
2023/05/11 02:36:58;;;;;;;0.80;0.80;;;;;;;;;;5046847;28;20129;-84
2023/05/11 02:39:35;;;;;;;0.60;0.60;;;;;;;;;;5044457;28;20498;-83
2023/05/11 02:42:22;;;;;;;1.08;1.08;;;;;;;;;;5072319;28;20052;-83
2023/05/11 02:45:00;;;;;;;0.82;0.82;;;;;;;;;;5038009;28;20585;-83
2023/05/11 02:47:30;;;;;;;1.20;1.20;;;;;;;;;;5031182;28;20558;-84
2023/05/11 02:50:00;;;;;;;1.10;1.10;;;;;;;;;;5052635;28;20575;-83
2023/05/11 02:52:31;;;;;;;0.70;0.70;;;;;;;;;;5040706;28;20052;-83
2023/05/11 02:55:00;;;;;;;0.77;0.77;;;;;;;;;;5051725;28;20054;-84
2023/05/11 02:57:27;;;;;;;0.88;0.88;;;;;;;;;;5050451;28;20094;-84
2023/05/11 03:00:00;;;;;;;0.90;0.90;;;;;;;;;;5053239;28;20517;-83
2023/05/11 03:02:27;;;;;;;0.80;0.80;;;;;;;;;;5062874;28;20044;-83
2023/05/11 03:04:55;;;;;;;0.70;0.70;;;;;;;;;;5057511;28;20044;-82
2023/05/11 03:07:23;;;;;;;0.70;0.70;;;;;;;;;;5073589;28;20064;-83
2023/05/11 03:10:00;;;;;;;0.77;0.77;;;;;;;;;;5045325;28;20056;-84
2023/05/11 03:12:32;;;;;;;0.88;0.88;;;;;;;;;;5047001;28;20103;-83
2023/05/11 03:15:01;;;;;;;;;;;;;;;;;;5059789;28;20048;-84
2023/05/11 03:17:29;;;;;;;0.90;0.90;;;;;;;;;;5060543;28;19931;-84
2023/05/11 03:19:58;;;;;;;0.80;0.80;;;;;;;;;;5055216;28;20045;-83
2023/05/11 03:22:26;;;;;;;0.70;0.70;;;;;;;;;;5056187;28;20048;-83
2023/05/11 03:24:54;;;;;;;0.80;0.80;;;;;;;;;;5068790;28;20060;-83
2023/05/11 03:27:22;;;;;;;1.00;1.00;;;;;;;;;;5072826;28;20047;-84
2023/05/11 03:29:52;;;;;;;0.65;0.65;;;;;;;;;;5043761;28;20448;-85
2023/05/11 03:32:19;;;;;;;1.08;1.00;;;;;;;;;;5048059;28;20755;-84
2023/05/11 03:34:48;;;;;;;0.80;0.80;;;;;;;;;;5047844;28;20403;-84
2023/05/11 03:37:18;;;;;;;1.27;1.17;;;;;;;;;;5053133;28;20040;-85
2023/05/11 03:39:47;;;;;;;0.93;0.93;;;;;;;;;;5073197;28;20074;-84
2023/05/11 03:42:15;;;;;;;0.88;0.88;;;;;;;;;;5043198;28;20053;-84
2023/05/11 03:44:46;;;;;;;0.98;0.98;;;;;;;;;;5057831;28;20048;-84
2023/05/11 03:47:15;;;;;;;1.30;1.30;;;;;;;;;;5055711;28;20068;-84
2023/05/11 03:49:42;;;;;;;1.17;1.17;;;;;;;;;;5068023;28;20055;-83
2023/05/11 03:52:10;;;;;;;1.00;1.00;;;;;;;;;;5076193;28;20063;-84
2023/05/11 03:54:44;;;;;;;1.13;1.13;;;;;;;;;;5050628;28;20032;-84
2023/05/11 03:57:15;;;;;;;1.40;1.40;;;;;;;;;;5051304;28;20085;-84
2023/05/11 03:59:42;;;;;;;1.17;1.17;;;;;;;;;;5068056;28;20452;-83
2023/05/11 04:02:10;;;;;;;1.30;1.30;;;;;;;;;;5043698;28;20141;-84
2023/05/11 04:04:37;;;;;;;1.50;1.50;;;;;;;;;;5049232;28;20048;-83
2023/05/11 04:07:05;;;;;;;1.17;1.17;;;;;;;;;;5078723;28;20432;-83
2023/05/11 04:09:32;;;;;;;1.42;1.33;;;;;;;;;;5049034;28;20040;-83
2023/05/11 04:11:59;;;;;;;1.20;1.20;;;;;;;;;;5072792;28;20134;-84
2023/05/11 04:14:28;;;;;;;1.20;1.20;;;;;;;;;;5054713;28;20044;-84
2023/05/11 04:16:55;;;;;;;1.20;1.20;;;;;;;;;;5048573;28;20154;-84
2023/05/11 04:19:23;;;;;;;1.10;1.10;;;;;;;;;;5073719;28;20467;-84
2023/05/11 04:21:50;;;;;;;1.27;1.27;;;;;;;;;;5053830;28;20446;-85
2023/05/11 04:24:17;;;;;;;0.90;0.90;;;;;;;;;;5050857;28;20099;-84
2023/05/11 04:26:45;;;;;;;1.10;1.10;;;;;;;;;;5055242;28;20056;-85
2023/05/11 04:29:12;;;;;;;1.20;1.20;;;;;;;;;;5055080;28;20592;-84
2023/05/11 04:31:42;;;;;;;1.20;1.20;;;;;;;;;;5055533;28;20450;-84
2023/05/11 04:34:10;;;;;;;1.00;1.00;;;;;;;;;;5051049;28;20094;-84
2023/05/11 04:36:38;;;;;;;1.00;1.00;;;;;;;;;;5043779;28;20146;-84
2023/05/11 04:39:36;;;;;;;1.00;1.00;;;;;;;;;;5043300;28;20051;-84
2023/05/11 04:42:11;;;;;;;1.13;1.13;;;;;;;;;;5052400;28;20390;-84
2023/05/11 04:45:09;;;;;;;1.20;1.20;;;;;;;;;;5051179;28;20466;-83
2023/05/11 04:48:45;;;;;;;1.00;1.00;;;;;;;;;;5043790;28;20047;-84
2023/05/11 04:52:13;;;;;;;1.10;1.10;;;;;;;;;;5051433;28;20072;-83
2023/05/11 04:55:02;;;;;;;0.90;0.90;;;;;;;;;;5049959;28;20032;-84
2023/05/11 04:58:01;;;;;;;0.80;0.80;;;;;;;;;;5063776;28;20036;-83
2023/05/11 05:00:47;;;;;;;0.90;0.90;;;;;;;;;;4967838;28;20061;-84
2023/05/11 05:07:43;;;;;;;1.00;1.00;;;;;;;;;;4986447;28;20030;-83
2023/05/11 05:10:53;;;;;;;1.40;1.40;;;;;;;;;;4974734;28;20077;-83
2023/05/11 05:18:10;;;;;;;1.50;1.50;;;;;;;;;;4953412;29;20039;-85
2023/05/11 05:40:18;;;;;;;2.00;1.90;;;;;;;;;;5026932;28;20483;-80
2023/05/11 05:42:50;;;;;;;2.10;1.90;;;;;;;;;;5008676;28;20522;-83
2023/05/11 05:45:21;;;;;;;1.92;1.83;;;;;;;;;;5019945;28;20061;-79
2023/05/11 05:47:50;;;;;;;2.05;1.95;;;;;;;;;;5003731;28;20423;-79
2023/05/11 05:50:18;;;;;;;2.30;2.20;;;;;;;;;;5024001;28;20042;-80
2023/05/11 05:52:46;;;;;;;1.85;1.85;;;;;;;;;;5017506;28;20048;-79
2023/05/11 05:55:15;;;;;;;2.20;2.03;;;;;;;;;;5013466;28;20122;-78
2023/05/11 05:57:44;;;;;;;2.00;1.90;;;;;;;;;;5008108;28;20046;-79
2023/05/11 06:00:12;;;;;;;2.10;2.00;;;;;;;;;;5018596;28;20045;-80
2023/05/11 06:02:40;;;;;;;1.92;1.83;;;;;;;;;;5035591;28;20143;-80
2023/05/11 06:05:14;;;;;;;2.20;2.10;;;;;;;;;;5024018;28;20098;-79
2023/05/11 06:07:42;;;;;;;2.03;1.92;;;;;;;;;;5011969;28;20564;-79
2023/05/11 06:10:16;;;;;;;2.20;2.10;;;;;;;;;;5014385;28;20041;-82
2023/05/11 06:12:46;;;;;;;2.08;1.98;;;;;;;;;;5013455;28;20440;-79
2023/05/11 06:15:13;;;;;;;2.10;2.00;;;;;;;;;;5025086;28;20114;-79
2023/05/11 06:17:45;;;;;;;;;;;;;;;;;;5007725;28;20041;-79
2023/05/11 06:20:13;;;;;;;1.65;1.63;;;;;;;;;;5034830;28;19932;-81
2023/05/11 06:22:47;;;;;;;1.70;1.70;;;;;;;;;;5011214;28;20392;-81
2023/05/11 06:25:14;;;;;;;2.08;1.98;;;;;;;;;;4965475;28;20412;-80
2023/05/11 06:27:43;;;;;;;2.22;2.13;;;;;;;;;;4947554;28;20081;-77
2023/05/11 06:30:10;;;;;;;2.10;2.00;;;;;;;;;;4960566;28;20094;-76
2023/05/11 06:32:38;;;;;;;2.20;2.10;;;;;;;;;;4938884;28;20137;-78
2023/05/11 06:35:06;;;;;;;2.00;1.90;;;;;;;;;;4960469;28;20158;-76
2023/05/11 06:37:34;;;;;;;1.85;1.75;;;;;;;;;;4959289;28;20078;-77
2023/05/11 06:40:02;;;;;;;2.50;2.17;;;;;;;;;;4956953;28;20051;-77
2023/05/11 06:42:29;;;;;;;1.90;1.85;;;;;;;;;;4943590;28;20039;-78
2023/05/11 06:45:06;;;;;;;1.80;1.70;;;;;;;;;;4947285;28;20043;-76
2023/05/11 06:47:34;;;;;;;2.00;1.90;;;;;;;;;;4957470;28;20515;-76
2023/05/11 06:50:02;;;;;;;2.25;2.15;;;;;;;;;;4956641;28;20042;-76
2023/05/11 06:52:31;;;;;;;2.17;2.08;;;;;;;;;;4937609;28;20456;-78
2023/05/11 06:55:00;;;;;;;1.90;1.90;;;;;;;;;;4942746;28;20049;-76
2023/05/11 06:57:31;;;;;;;2.10;2.00;;;;;;;;;;4962593;28;20039;-76
2023/05/11 06:59:59;;;;;;;2.10;2.00;;;;;;;;;;4939346;28;20076;-76
2023/05/11 07:02:30;;;;;;;2.20;2.10;;;;;;;;;;4952108;28;20130;-79
2023/05/11 07:04:58;;;;;;;2.00;1.90;;;;;;;;;;4957791;28;20053;-79
2023/05/11 07:07:25;;;;;;;2.22;2.13;;;;;;;;;;4947630;28;20399;-77
2023/05/11 07:09:53;;;;;;;2.00;1.90;;;;;;;;;;4959606;28;20053;-76
2023/05/11 07:12:21;;;;;;;1.85;1.75;;;;;;;;;;4961275;28;20050;-78
2023/05/11 07:14:49;;;;;;;1.80;1.70;;;;;;;;;;4959268;28;20599;-78
2023/05/11 07:17:17;;;;;;;1.92;1.83;;;;;;;;;;4956158;28;20143;-77
2023/05/11 07:19:45;;;;;;;1.80;1.70;;;;;;;;;;4953582;28;20138;-79
2023/05/11 07:22:12;;;;;;;1.30;1.30;;;;;;;;;;4951759;28;20293;-79
2023/05/11 07:24:42;;;;;;;1.40;1.40;;;;;;;;;;4935213;28;20117;-78
2023/05/11 07:27:33;;;;;;;1.75;1.65;;;;;;;;;;4953593;28;20077;-81
2023/05/11 07:30:01;;;;;;;1.73;1.63;;;;;;;;;;4959010;28;20089;-80
2023/05/11 07:32:28;;;;;;;1.30;1.30;;;;;;;;;;4948169;28;20047;-78
2023/05/11 07:34:56;;;;;;;1.50;1.50;;;;;;;;;;4953881;28;20129;-78
2023/05/11 07:37:23;;;;;;;1.30;1.30;;;;;;;;;;4958946;28;20039;-79
2023/05/11 07:39:51;;;;;;;1.70;1.60;;;;;;;;;;4949722;28;20074;-78
2023/05/11 07:42:20;;;;;;;1.45;1.45;;;;;;;;;;4956267;28;20059;-79
2023/05/11 07:44:52;;;;;;;1.92;1.83;;;;;;;;;;4957465;28;20148;-81
2023/05/11 07:47:20;;;;;;;1.80;1.70;;;;;;;;;;4958151;28;20043;-81
2023/05/11 07:49:49;;;;;;;1.63;1.52;;;;;;;;;;4959557;28;20085;-81
2023/05/11 07:52:16;;;;;;;1.70;1.60;;;;;;;;;;4960081;28;20579;-80
2023/05/11 07:54:44;;;;;;;1.58;1.58;;;;;;;;;;4954095;28;20051;-80
2023/05/11 07:57:12;;;;;;;1.50;1.50;;;;;;;;;;4957251;28;20035;-79
2023/05/11 07:59:40;;;;;;;1.50;1.50;;;;;;;;;;4957435;28;20125;-79
2023/05/11 08:02:08;;;;;;;4.15;3.85;;;;;;;;;;4959466;28;20086;-80
2023/05/11 08:04:39;;;;;;;2.10;2.00;;;;;;;;;;4956730;28;20528;-80
2023/05/11 08:07:07;;;;;;;1.92;1.83;;;;;;;;;;4957923;28;20062;-78
2023/05/11 08:09:35;;;;;;;1.50;1.50;;;;;;;;;;4939952;28;20047;-80
2023/05/11 08:12:03;;;;;;;1.85;1.75;;;;;;;;;;4965177;28;20046;-78
2023/05/11 08:14:31;;;;;;;1.30;1.30;;;;;;;;;;4958954;28;20043;-79
2023/05/11 08:16:59;;;;;;;1.52;1.42;;;;;;;;;;4962285;28;20130;-78
2023/05/11 08:19:26;;;;;;;1.48;1.48;;;;;;;;;;4963633;28;20063;-79
2023/05/11 08:21:54;;;;;;;1.73;1.63;;;;;;;;;;4963055;28;20061;-81
2023/05/11 08:24:21;;;;;;;1.60;1.60;;;;;;;;;;4964314;28;20050;-78
2023/05/11 08:26:48;;;;;;;1.92;1.83;;;;;;;;;;4965604;28;20133;-79
2023/05/11 08:29:16;;;;;;;1.73;1.63;;;;;;;;;;4965393;28;20053;-80
2023/05/11 08:31:43;;;;;;;1.90;1.80;;;;;;;;;;4965427;28;20049;-79
2023/05/11 08:34:11;;;;;;;1.55;1.55;;;;;;;;;;4965794;28;20524;-79
2023/05/11 08:36:46;;;;;;;1.65;1.65;;;;;;;;;;4965696;28;20191;-80
2023/05/11 08:39:14;;;;;;;1.48;1.48;;;;;;;;;;4967275;28;20150;-80
2023/05/11 08:42:01;;;;;;;1.40;1.40;;;;;;;;;;4965524;28;20061;-79
2023/05/11 08:44:32;;;;;;;1.42;1.35;;;;;;;;;;4967996;28;20042;-77
2023/05/11 08:47:00;;;;;;;1.20;1.20;;;;;;;;;;4949577;28;20071;-80
2023/05/11 08:49:47;;;;;;;1.65;1.65;;;;;;;;;;4957414;28;20154;-81
2023/05/11 08:52:15;;;;;;;1.75;1.65;;;;;;;;;;4964830;28;20047;-79
2023/05/11 08:54:43;;;;;;;1.50;1.50;;;;;;;;;;4949924;28;20051;-79
2023/05/11 08:57:12;;;;;;;1.65;1.55;;;;;;;;;;4965197;28;20039;-79
2023/05/11 08:59:41;;;;;;;1.95;1.63;;;;;;;;;;4965254;28;20055;-79
2023/05/11 09:02:10;;;;;;;1.60;1.50;;;;;;;;;;4961763;28;20050;-80
2023/05/11 09:04:37;;;;;;;1.70;1.70;;;;;;;;;;4968709;28;20051;-80
2023/05/11 09:07:05;;;;;;;1.50;1.50;;;;;;;;;;4961021;28;20440;-78
2023/05/11 09:09:44;;;;;;;1.40;1.40;;;;;;;;;;4968675;28;20469;-79
2023/05/11 09:12:39;;;;;;;1.70;1.67;;;;;;;;;;4948615;28;20043;-77
2023/05/11 09:15:20;;;;;;;1.67;1.57;;;;;;;;;;4959763;28;20114;-78
2023/05/11 09:18:12;;;;;;;1.75;1.67;;;;;;;;;;4957192;29;20295;-78
2023/05/11 09:20:44;;;;;;;1.80;1.70;;;;;;;;;;4954622;28;20051;-78
2023/05/11 09:23:27;;;;;;;1.40;1.40;;;;;;;;;;4950786;28;20050;-79
2023/05/11 09:26:16;;;;;;;1.95;1.85;;;;;;;;;;4973742;28;20043;-78
2023/05/11 09:28:57;;;;;;;1.90;1.80;;;;;;;;;;4969062;28;20078;-79
2023/05/11 09:31:48;;;;;;;3.17;2.28;;;;;;;;;;4968984;28;20042;-79
2023/05/11 09:34:18;;;;;;;1.95;1.85;;;;;;;;;;4969564;28;20077;-80
2023/05/11 09:36:46;;;;;;;2.08;1.98;;;;;;;;;;4968235;28;20058;-78
2023/05/11 09:39:18;;;;;;;2.00;1.90;;;;;;;;;;4965915;28;20073;-79
2023/05/11 09:41:48;;;;;;;1.80;1.70;;;;;;;;;;4962997;28;20137;-80
2023/05/11 09:44:18;;;;;;;2.33;1.67;;;;;;;;;;4964385;28;20190;-78
2023/05/11 09:46:46;;;;;;;1.33;1.33;;;;;;;;;;4963320;28;20368;-78
2023/05/11 09:49:13;;;;;;;2.10;2.00;;;;;;;;;;4963912;28;20042;-78
2023/05/11 09:51:41;;;;;;;1.90;1.80;;;;;;;;;;4959990;28;20054;-80
2023/05/11 09:54:21;;;;;;;2.20;2.10;;;;;;;;;;4956364;28;20565;-80
2023/05/11 09:56:57;;;;;;;1.83;1.75;;;;;;;;;;4955510;28;20360;-79
2023/05/11 09:59:37;;;;;;;2.08;1.98;;;;;;;;;;4961360;28;20546;-78
2023/05/11 10:02:18;;;;;;;2.72;1.65;;;;;;;;;;4961757;28;20552;-80
2023/05/11 10:04:45;;;;;;;2.03;1.92;;;;;;;;;;4963947;28;20047;-78
2023/05/11 10:07:23;;;;;;;2.05;1.95;;;;;;;;;;4961965;28;20129;-78
2023/05/11 10:09:52;;;;;;;1.90;1.80;;;;;;;;;;4963113;28;20070;-79
2023/05/11 10:12:22;;;;;;;2.42;2.30;;;;;;;;;;4966573;28;20463;-78
2023/05/11 10:14:51;;;;;;;1.90;1.80;;;;;;;;;;4967487;28;20417;-79
2023/05/11 10:17:18;;;;;;;2.50;2.40;;;;;;;;;;4955116;28;20448;-78
2023/05/11 10:19:47;;;;;;;2.22;2.13;;;;;;;;;;4975628;28;20085;-80
2023/05/11 10:22:18;;;;;;;3.03;2.83;;;;;;;;;;4951476;28;20528;-80
2023/05/11 10:24:46;;;;;;;2.40;2.30;;;;;;;;;;4959281;28;20571;-80
2023/05/11 10:27:14;;;;;;;2.95;2.85;;;;;;;;;;4958599;28;20051;-80
2023/05/11 10:29:41;;;;;;;3.25;2.95;;;;;;;;;;4960417;28;20061;-81
2023/05/11 10:32:10;;;;;;;2.78;2.60;;;;;;;;;;4959492;28;20043;-78
2023/05/11 10:34:39;;;;;;;2.90;2.70;;;;;;;;;;4958855;28;20106;-78
2023/05/11 10:37:07;;;;;;;2.63;2.53;;;;;;;;;;4956288;28;20034;-77
2023/05/11 10:39:39;;;;;;;3.35;3.17;;;;;;;;;;4957830;28;20476;-78
2023/05/11 10:42:23;;;;;;;2.90;2.70;;;;;;;;;;4958044;28;20549;-77
2023/05/11 10:45:09;;;;;;;3.38;3.17;;;;;;;;;;4961108;28;20062;-78
2023/05/11 10:47:40;;;;;;;2.35;2.20;;;;;;;;;;4942206;28;20158;-79
2023/05/11 10:50:12;;;;;;;2.00;1.90;;;;;;;;;;4956571;28;20421;-79
2023/05/11 10:53:01;;;;;;;2.17;2.08;;;;;;;;;;4972101;28;20053;-79
2023/05/11 10:55:42;;;;;;;2.38;2.28;;;;;;;;;;4968689;28;20070;-78
2023/05/11 10:58:20;;;;;;;2.50;2.40;;;;;;;;;;4954243;29;20125;-79
2023/05/11 11:01:07;;;;;;;2.55;2.40;;;;;;;;;;4937775;28;20062;-78
2023/05/11 11:03:39;;;;;;;2.45;2.35;;;;;;;;;;4943372;28;20329;-79
2023/05/11 11:06:22;;;;;;;3.15;2.88;;;;;;;;;;4946709;28;20118;-78
2023/05/11 11:08:55;;;;;;;3.10;2.90;;;;;;;;;;4951728;28;20054;-77
2023/05/11 11:11:29;;;;;;;2.85;2.75;;;;;;;;;;4952945;28;20055;-77
2023/05/11 11:14:00;;;;;;;2.45;2.35;;;;;;;;;;4964578;28;20039;-77
2023/05/11 11:16:28;;;;;;;2.80;2.63;;;;;;;;;;4960993;28;20054;-77
2023/05/11 11:19:14;;;;;;;2.65;2.45;;;;;;;;;;4958225;28;20129;-77
2023/05/11 11:21:42;;;;;;;3.50;3.30;;;;;;;;;;4940395;28;20536;-78
2023/05/11 11:24:29;;;;;;;2.78;2.58;;;;;;;;;;4961652;28;20054;-77
2023/05/11 11:26:56;;;;;;;3.47;3.17;;;;;;;;;;4955658;28;20332;-77
2023/05/11 11:29:24;;;;;;;2.42;2.33;;;;;;;;;;4958019;28;20065;-78
2023/05/11 11:31:51;;;;;;;2.95;2.60;;;;;;;;;;4955781;28;20054;-77
2023/05/11 11:34:28;;;;;;;3.03;2.83;;;;;;;;;;4951569;28;20141;-78
2023/05/11 11:37:05;;;;;;;2.55;2.42;;;;;;;;;;4952725;28;20319;-78
2023/05/11 11:39:42;;;;;;;2.08;1.98;;;;;;;;;;4952062;28;20051;-78
2023/05/11 11:42:32;;;;;;;2.20;2.10;;;;;;;;;;4959842;28;20089;-78
2023/05/11 11:45:18;;;;;;;2.40;2.30;;;;;;;;;;4958320;28;20113;-77
2023/05/11 11:48:04;;;;;;;2.47;2.30;;;;;;;;;;4954523;28;20102;-77
2023/05/11 11:50:33;;;;;;;2.55;2.45;;;;;;;;;;4959794;28;20220;-77
2023/05/11 11:53:00;;;;;;;2.47;2.35;;;;;;;;;;4953076;28;20051;-78
2023/05/11 11:55:45;;;;;;;2.50;2.30;;;;;;;;;;4944245;28;20069;-78
2023/05/11 11:58:32;;;;;;;2.35;2.25;;;;;;;;;;4960256;28;20051;-78
2023/05/11 12:00:59;;;;;;;2.63;2.42;;;;;;;;;;4957899;28;20141;-78
2023/05/11 12:03:27;;;;;;;3.35;3.10;;;;;;;;;;4958369;28;20058;-78
2023/05/11 12:05:59;;;;;;;2.95;2.75;;;;;;;;;;4961950;28;20145;-78
2023/05/11 12:08:26;;;;;;;;;;;;;;;;;;4961703;28;20512;-78
2023/05/11 12:10:54;;;;;;;2.42;2.33;;;;;;;;;;4962099;28;21749;-78
2023/05/11 12:13:22;;;;;;;2.95;2.75;;;;;;;;;;4943658;28;20089;-77
2023/05/11 12:15:49;;;;;;;2.70;2.60;;;;;;;;;;4955540;28;20047;-77
2023/05/11 12:18:20;;;;;;;3.40;3.13;;;;;;;;;;4966777;28;20457;-77
2023/05/11 12:20:48;;;;;;;3.25;2.85;;;;;;;;;;4962419;28;20047;-78
2023/05/11 12:23:15;;;;;;;2.92;2.78;;;;;;;;;;4960778;28;20722;-77
2023/05/11 12:25:43;;;;;;;3.55;3.30;;;;;;;;;;4964333;28;20135;-77
2023/05/11 12:28:11;;;;;;;2.50;2.30;;;;;;;;;;4951958;28;20226;-78
2023/05/11 12:30:39;;;;;;;2.33;2.22;;;;;;;;;;4960032;28;20050;-77
2023/05/11 12:33:28;;;;;;;2.38;2.28;;;;;;;;;;4965628;28;20062;-77
2023/05/11 12:37:07;;;;;;;2.78;2.60;;;;;;;;;;4905239;29;20062;-77
2023/05/11 12:39:34;;;;;;;3.08;2.88;;;;;;;;;;4914440;29;20040;-78
2023/05/11 12:42:02;;;;;;;2.50;2.40;;;;;;;;;;4921354;29;21144;-78
2023/05/11 12:44:32;;;;;;;5.45;4.93;;;;;;;;;;4915842;29;20048;-78
2023/05/11 12:47:00;;;;;;;5.63;4.32;;;;;;;;;;4915524;29;20059;-78
2023/05/11 12:53:54;;;;;;;3.13;2.92;;;;;;;;;;4926156;29;20087;-79
2023/05/11 12:56:26;;;;;;;3.05;2.85;;;;;;;;;;4918797;29;20059;-78
2023/05/11 12:59:37;;;;;;;;;;;;;;;;;;;;;
2023/05/11 13:03:02;;;;;;;2.70;2.50;;;;;;;;;;4907488;29;20060;-78
2023/05/11 13:05:30;;;;;;;2.53;2.42;;;;;;;;;;4901568;29;20064;-79
2023/05/11 13:07:58;;;;;;;2.05;1.98;;;;;;;;;;4949932;28;20062;-78
2023/05/11 13:10:26;;;;;;;3.20;3.00;;;;;;;;;;4954443;28;20127;-77
2023/05/11 13:12:54;;;;;;;3.70;3.50;;;;;;;;;;4965812;28;20051;-78
2023/05/11 13:15:23;;;;;;;2.88;2.70;;;;;;;;;;4957702;28;20050;-79
2023/05/11 13:17:58;;;;;;;3.25;2.90;;;;;;;;;;4959074;28;20051;-79
2023/05/11 13:20:28;;;;;;;3.08;2.80;;;;;;;;;;4952887;28;20504;-79
2023/05/11 13:23:06;;;;;;;2.95;2.75;;;;;;;;;;4954191;28;21372;-78
2023/05/11 13:25:34;;;;;;;3.47;3.22;;;;;;;;;;4964748;28;20054;-80
2023/05/11 13:28:02;;;;;;;3.40;3.10;;;;;;;;;;4958994;28;20057;-79
2023/05/11 13:30:30;;;;;;;3.47;3.28;;;;;;;;;;5007519;23;20070;-84
2023/05/11 13:33:01;;;;;;;2.97;2.78;;;;;;;;;;5003343;28;20057;-84
2023/05/11 13:35:28;;;;;;;3.20;2.90;;;;;;;;;;5008313;28;20038;-84
2023/05/11 13:37:59;;;;;;;3.08;2.88;;;;;;;;;;5004574;28;20066;-85
2023/05/11 13:40:26;;;;;;;3.10;2.90;;;;;;;;;;5013994;28;20519;-86
2023/05/11 13:42:56;;;;;;;3.45;3.25;;;;;;;;;;4995497;28;20046;-85
2023/05/11 13:45:23;;;;;;;4.25;3.53;;;;;;;;;;5015911;28;20050;-84
2023/05/11 13:47:51;;;;;;;4.40;4.10;;;;;;;;;;5003481;28;20061;-85
2023/05/11 13:50:18;;;;;;;3.33;3.13;;;;;;;;;;4999570;28;20045;-85
2023/05/11 13:52:46;;;;;;;3.50;3.20;;;;;;;;;;4999746;28;20038;-85
2023/05/11 13:55:13;;;;;;;3.47;3.28;;;;;;;;;;5004040;28;20547;-85
2023/05/11 13:57:41;;;;;;;3.40;3.20;;;;;;;;;;5014095;28;20038;-86
2023/05/11 14:00:12;;;;;;;2.95;2.78;;;;;;;;;;5001248;28;20049;-86
2023/05/11 14:02:39;;;;;;;3.05;2.85;;;;;;;;;;5000320;28;20506;-85
2023/05/11 14:05:07;;;;;;;3.53;3.28;;;;;;;;;;5001593;28;20451;-85
2023/05/11 14:07:35;;;;;;;3.17;2.97;;;;;;;;;;4998060;28;20120;-85
2023/05/11 14:10:14;;;;;;;4.38;3.97;;;;;;;;;;5017511;28;20049;-86
2023/05/11 14:12:42;;;;;;;3.35;3.15;;;;;;;;;;5033851;28;20045;-87
2023/05/11 14:15:12;;;;;;;3.00;2.80;;;;;;;;;;5032736;28;20030;-84
2023/05/11 14:17:41;;;;;;;3.20;3.00;;;;;;;;;;5028286;28;20045;-85
2023/05/11 14:20:14;;;;;;;;;;;;;;;;;;5041878;28;20050;-85
2023/05/11 14:22:41;;;;;;;2.95;2.75;;;;;;;;;;5024714;28;19932;-83
2023/05/11 14:25:09;;;;;;;2.72;2.63;;;;;;;;;;5018284;28;20049;-85
2023/05/11 14:27:43;;;;;;;3.65;3.40;;;;;;;;;;5020085;28;20054;-83
2023/05/11 14:30:10;;;;;;;3.25;3.05;;;;;;;;;;4997214;28;20393;-86
2023/05/11 14:32:38;;;;;;;3.08;2.88;;;;;;;;;;5013430;28;20130;-86
2023/05/11 14:35:06;;;;;;;3.10;2.90;;;;;;;;;;4994469;28;20050;-85
2023/05/11 14:37:33;;;;;;;3.88;3.58;;;;;;;;;;5012493;28;20121;-84
2023/05/11 14:40:01;;;;;;;3.35;3.15;;;;;;;;;;5012103;28;20057;-84
2023/05/11 14:42:28;;;;;;;3.45;3.25;;;;;;;;;;5009013;28;20530;-85
2023/05/11 14:44:59;;;;;;;3.60;3.40;;;;;;;;;;5016503;28;20636;-84
2023/05/11 14:47:27;;;;;;;3.70;3.40;;;;;;;;;;4993149;28;20048;-85
2023/05/11 14:50:01;;;;;;;3.67;3.47;;;;;;;;;;4997754;28;20042;-83
2023/05/11 14:52:30;;;;;;;3.30;3.10;;;;;;;;;;4989937;28;20044;-85
2023/05/11 14:54:59;;;;;;;3.45;3.25;;;;;;;;;;4992931;28;20048;-83
2023/05/11 14:57:27;;;;;;;3.72;3.35;;;;;;;;;;4998932;28;20049;-83
2023/05/11 14:59:54;;;;;;;3.45;3.25;;;;;;;;;;5031782;28;20049;-81
2023/05/11 15:02:28;;;;;;;4.05;3.78;;;;;;;;;;5012716;28;20069;-82
2023/05/11 15:04:55;;;;;;;3.50;3.30;;;;;;;;;;5017105;28;20064;-84
2023/05/11 15:07:23;;;;;;;3.92;3.63;;;;;;;;;;5023013;28;20314;-83
2023/05/11 15:09:50;;;;;;;4.00;3.70;;;;;;;;;;5003225;28;20132;-84
2023/05/11 15:12:17;;;;;;;4.40;4.10;;;;;;;;;;4992415;28;20053;-85
2023/05/11 15:14:45;;;;;;;4.72;4.43;;;;;;;;;;4993473;28;20045;-84
2023/05/11 15:17:13;;;;;;;4.18;3.90;;;;;;;;;;5008999;28;20050;-85
2023/05/11 15:19:40;;;;;;;4.32;4.03;;;;;;;;;;5026820;28;20114;-84
2023/05/11 15:22:08;;;;;;;5.05;4.65;;;;;;;;;;5007186;28;20050;-83
2023/05/11 15:24:35;;;;;;;4.53;4.22;;;;;;;;;;5026206;28;20108;-84
2023/05/11 15:27:02;;;;;;;4.20;3.90;;;;;;;;;;5025845;28;20593;-84
2023/05/11 15:29:33;;;;;;;5.05;4.65;;;;;;;;;;5026802;28;20060;-84
2023/05/11 15:32:00;;;;;;;5.00;4.60;;;;;;;;;;5016536;28;20108;-84
2023/05/11 15:34:28;;;;;;;4.72;4.18;;;;;;;;;;4984041;28;20041;-84
2023/05/11 15:36:57;;;;;;;4.00;3.67;;;;;;;;;;5042907;28;20045;-81
2023/05/11 15:39:24;;;;;;;4.10;3.80;;;;;;;;;;5041726;28;20041;-81
2023/05/11 15:41:52;;;;;;;4.50;4.10;;;;;;;;;;5049661;28;20093;-81
2023/05/11 15:44:19;;;;;;;4.20;3.90;;;;;;;;;;5016975;28;20045;-81
2023/05/11 15:46:46;;;;;;;3.88;3.63;;;;;;;;;;5017333;28;20108;-81
2023/05/11 15:49:15;;;;;;;4.30;4.00;;;;;;;;;;5006331;28;20526;-83
2023/05/11 15:51:43;;;;;;;4.78;4.43;;;;;;;;;;5024986;28;20203;-83